createdAt,value
2018-12-17T00:01:58.134Z,26.53
2018-12-17T00:04:25.614Z,23.43
2018-12-17T00:06:53.069Z,23.97
2018-12-17T00:09:20.564Z,26.03
2018-12-17T00:11:48.044Z,27.03
2018-12-17T00:14:15.476Z,26.03
2018-12-17T00:16:42.930Z,28.30
2018-12-17T00:19:10.372Z,24.87
2018-12-17T00:21:37.813Z,28.47
2018-12-17T00:24:05.261Z,24.63
2018-12-17T00:26:32.728Z,22.40
2018-12-17T00:29:00.189Z,35.93
2018-12-17T00:31:27.632Z,34.67
2018-12-17T00:33:55.098Z,35.17
2018-12-17T00:36:22.560Z,29.03
2018-12-17T00:38:50.013Z,32.90
2018-12-17T00:41:17.473Z,30.67
2018-12-17T00:43:45.438Z,30.30
2018-12-17T00:46:13.135Z,30.63
2018-12-17T00:48:40.641Z,31.80
2018-12-17T00:51:08.159Z,31.23
2018-12-17T00:53:35.665Z,30.83
2018-12-17T00:56:03.197Z,32.00
2018-12-17T00:58:30.635Z,31.03
2018-12-17T01:00:58.115Z,31.10
2018-12-17T01:03:25.563Z,27.90
2018-12-17T01:05:53.022Z,37.47
2018-12-17T01:08:20.550Z,45.10
2018-12-17T01:10:47.992Z,46.70
2018-12-17T01:13:15.467Z,40.33
2018-12-17T01:15:42.912Z,43.50
2018-12-17T01:18:10.411Z,41.40
2018-12-17T01:20:37.879Z,36.13
2018-12-17T01:23:05.405Z,36.00
2018-12-17T01:25:32.836Z,32.97
2018-12-17T01:28:00.311Z,26.93
2018-12-17T01:30:27.744Z,34.90
2018-12-17T01:32:55.489Z,29.40
2018-12-17T01:35:22.928Z,33.63
2018-12-17T01:37:50.385Z,33.40
2018-12-17T01:40:17.920Z,35.67
2018-12-17T01:42:45.383Z,34.40
2018-12-17T01:45:12.837Z,36.77
2018-12-17T01:47:40.299Z,31.03
2018-12-17T01:50:07.808Z,31.13
2018-12-17T01:52:35.260Z,30.63
2018-12-17T01:55:02.768Z,37.60
2018-12-17T01:57:30.216Z,30.67
2018-12-17T01:59:57.762Z,31.93
2018-12-17T02:02:25.244Z,32.73
2018-12-17T02:04:52.699Z,34.00
2018-12-17T02:07:20.164Z,38.67
2018-12-17T02:09:47.613Z,39.87
2018-12-17T02:12:15.075Z,31.87
2018-12-17T02:14:42.535Z,34.77
2018-12-17T02:17:09.998Z,40.00
2018-12-17T02:19:37.466Z,35.20
2018-12-17T02:22:04.913Z,37.70
2018-12-17T02:24:32.382Z,50.60
2018-12-17T02:26:59.820Z,32.70
2018-12-17T02:29:27.283Z,42.93
2018-12-17T02:31:54.721Z,44.93
2018-12-17T02:34:22.172Z,43.10
2018-12-17T02:36:49.678Z,36.03
2018-12-17T02:39:17.137Z,62.23
2018-12-17T02:41:44.588Z,54.33
2018-12-17T02:44:12.202Z,51.87
2018-12-17T02:46:39.694Z,60.70
2018-12-17T02:49:07.892Z,36.77
2018-12-17T02:51:37.297Z,57.53
2018-12-17T02:54:05.311Z,51.90
2018-12-17T02:56:32.755Z,38.63
2018-12-17T02:59:00.216Z,40.67
2018-12-17T03:01:27.652Z,60.93
2018-12-17T03:03:55.144Z,42.50
2018-12-17T03:06:22.617Z,37.13
2018-12-17T03:08:50.062Z,55.57
2018-12-17T03:11:17.620Z,32.27
2018-12-17T03:13:45.072Z,34.60
2018-12-17T03:16:12.543Z,32.00
2018-12-17T03:18:40.012Z,31.50
2018-12-17T03:21:07.485Z,27.93
2018-12-17T03:23:34.925Z,30.27
2018-12-17T03:26:02.424Z,29.90
2018-12-17T03:28:29.922Z,28.17
2018-12-17T03:30:57.401Z,24.97
2018-12-17T03:33:24.843Z,27.17
2018-12-17T03:35:52.327Z,26.57
2018-12-17T03:38:19.772Z,24.77
2018-12-17T03:40:47.269Z,32.10
2018-12-17T03:43:14.846Z,33.37
2018-12-17T03:45:42.323Z,29.20
2018-12-17T03:48:09.793Z,28.90
2018-12-17T03:50:37.248Z,29.40
2018-12-17T03:53:04.698Z,38.97
2018-12-17T03:55:32.255Z,24.47
2018-12-17T03:57:59.711Z,23.90
2018-12-17T04:00:27.216Z,23.33
2018-12-17T04:02:54.673Z,22.80
2018-12-17T04:05:22.210Z,24.50
2018-12-17T04:07:49.686Z,20.70
2018-12-17T04:10:17.136Z,22.83
2018-12-17T04:12:44.900Z,22.53
2018-12-17T04:15:12.360Z,23.70
2018-12-17T04:17:39.831Z,30.53
2018-12-17T04:20:07.360Z,27.57
2018-12-17T04:22:34.808Z,25.03
2018-12-17T04:25:02.275Z,34.20
2018-12-17T04:27:29.755Z,22.23
2018-12-17T04:29:57.220Z,23.90
2018-12-17T04:32:24.758Z,27.60
2018-12-17T04:34:52.224Z,37.80
2018-12-17T04:37:19.673Z,29.63
2018-12-17T04:39:47.154Z,29.53
2018-12-17T04:42:14.610Z,26.30
2018-12-17T04:44:42.124Z,32.77
2018-12-17T04:47:09.645Z,35.00
2018-12-17T04:49:37.101Z,31.30
2018-12-17T04:52:04.612Z,21.03
2018-12-17T04:54:32.286Z,23.20
2018-12-17T04:56:59.772Z,22.67
2018-12-17T04:59:27.227Z,20.13
2018-12-17T05:01:54.726Z,26.20
2018-12-17T05:04:22.210Z,22.10
2018-12-17T05:06:49.735Z,19.40
2018-12-17T05:09:17.203Z,24.00
2018-12-17T05:11:44.713Z,21.43
2018-12-17T05:14:12.199Z,20.10
2018-12-17T05:16:39.691Z,19.77
2018-12-17T05:19:07.287Z,21.57
2018-12-17T05:21:34.808Z,24.07
2018-12-17T05:24:02.337Z,26.30
2018-12-17T05:26:29.836Z,24.97
2018-12-17T05:28:57.324Z,22.00
2018-12-17T05:31:24.869Z,19.73
2018-12-17T05:33:52.379Z,20.53
2018-12-17T05:36:19.866Z,23.03
2018-12-17T05:38:47.317Z,20.83
2018-12-17T05:41:14.813Z,23.70
2018-12-17T05:43:42.270Z,19.37
2018-12-17T05:46:09.834Z,24.67
2018-12-17T05:48:37.306Z,21.10
2018-12-17T05:51:04.885Z,21.70
2018-12-17T05:53:42.035Z,20.80
2018-12-17T05:56:09.545Z,21.43
2018-12-17T05:58:37.012Z,21.83
2018-12-17T06:01:04.480Z,20.27
2018-12-17T06:03:31.928Z,25.00
2018-12-17T06:05:59.417Z,21.10
2018-12-17T06:08:26.915Z,24.80
2018-12-17T06:10:54.458Z,18.50
2018-12-17T06:13:21.922Z,20.97
2018-12-17T06:15:49.466Z,27.07
2018-12-17T06:18:16.962Z,24.60
2018-12-17T06:20:45.104Z,24.50
2018-12-17T06:23:12.578Z,22.53
2018-12-17T06:25:40.065Z,25.87
2018-12-17T06:28:07.535Z,31.10
2018-12-17T06:30:35.058Z,32.57
2018-12-17T06:33:02.532Z,25.10
2018-12-17T06:35:31.010Z,27.03
2018-12-17T06:37:58.584Z,34.93
2018-12-17T06:40:26.055Z,25.80
2018-12-17T06:42:53.543Z,26.80
2018-12-17T06:45:21.090Z,36.30
2018-12-17T06:47:48.608Z,31.23
2018-12-17T06:50:16.077Z,25.10
2018-12-17T06:52:43.552Z,28.00
2018-12-17T06:55:11.072Z,29.00
2018-12-17T06:57:38.620Z,23.90
2018-12-17T07:00:06.328Z,28.50
2018-12-17T07:02:33.818Z,27.17
2018-12-17T07:05:01.297Z,22.83
2018-12-17T07:07:28.777Z,23.30
2018-12-17T07:09:56.231Z,30.53
2018-12-17T07:12:23.710Z,22.53
2018-12-17T07:14:51.160Z,23.40
2018-12-17T07:17:18.627Z,25.10
2018-12-17T07:19:46.083Z,22.73
2018-12-17T07:22:13.581Z,32.20
2018-12-17T07:24:41.145Z,21.60
2018-12-17T07:27:08.649Z,22.47
2018-12-17T07:29:37.034Z,21.10
2018-12-17T07:32:04.646Z,19.97
2018-12-17T07:34:32.480Z,26.80
2018-12-17T07:37:00.127Z,25.47
2018-12-17T07:39:28.233Z,24.70
2018-12-17T07:41:55.758Z,22.30
2018-12-17T07:44:23.333Z,26.37
2018-12-17T07:46:50.825Z,24.07
2018-12-17T07:49:18.295Z,26.40
2018-12-17T07:51:46.784Z,23.70
2018-12-17T07:54:14.259Z,27.37
2018-12-17T07:56:42.473Z,26.60
2018-12-17T07:59:09.994Z,23.00
2018-12-17T08:01:37.611Z,22.13
2018-12-17T08:04:05.108Z,28.90
2018-12-17T08:06:32.615Z,42.93
2018-12-17T08:09:00.109Z,38.80
2018-12-17T08:11:27.580Z,46.77
2018-12-17T08:13:55.059Z,56.00
2018-12-17T08:16:22.534Z,48.00
2018-12-17T08:18:50.039Z,62.10
2018-12-17T08:21:17.505Z,77.63
2018-12-17T08:23:45.018Z,65.00
2018-12-17T08:26:12.498Z,73.53
2018-12-17T08:28:40.008Z,85.20
2018-12-17T08:31:07.516Z,116.23
2018-12-17T08:33:34.999Z,100.07
2018-12-17T08:36:02.452Z,89.47
2018-12-17T08:38:30.006Z,80.23
2018-12-17T08:40:57.600Z,84.37
2018-12-17T08:43:25.095Z,121.60
2018-12-17T08:45:52.616Z,87.80
2018-12-17T08:48:20.110Z,62.77
2018-12-17T08:50:47.728Z,63.60
2018-12-17T08:53:15.373Z,56.30
2018-12-17T08:55:42.967Z,56.20
2018-12-17T08:58:10.537Z,53.17
2018-12-17T09:00:39.025Z,58.53
2018-12-17T09:03:06.520Z,66.10
2018-12-17T09:05:34.023Z,75.20
2018-12-17T09:08:01.533Z,62.00
2018-12-17T09:10:28.996Z,68.60
2018-12-17T09:12:56.528Z,57.30
2018-12-17T09:15:23.993Z,53.00
2018-12-17T09:17:51.480Z,57.40
2018-12-17T09:20:18.999Z,38.40
2018-12-17T09:22:46.485Z,35.10
2018-12-17T09:25:13.959Z,27.73
2018-12-17T09:27:41.460Z,25.30
2018-12-17T09:30:09.066Z,23.47
2018-12-17T09:32:36.540Z,24.57
2018-12-17T09:35:04.519Z,23.67
2018-12-17T09:37:32.051Z,23.47
2018-12-17T09:39:59.579Z,22.60
2018-12-17T09:42:27.136Z,23.97
2018-12-17T09:44:54.613Z,21.57
2018-12-17T09:47:22.166Z,19.57
2018-12-17T09:49:49.700Z,22.30
2018-12-17T09:52:17.299Z,19.40
2018-12-17T09:54:44.791Z,20.80
2018-12-17T09:57:12.403Z,20.07
2018-12-17T09:59:39.949Z,18.53
2018-12-17T10:02:07.433Z,20.40
2018-12-17T10:04:34.908Z,22.20
2018-12-17T10:07:02.385Z,19.90
2018-12-17T10:09:29.880Z,22.80
2018-12-17T10:11:57.394Z,19.53
2018-12-17T10:14:25.024Z,20.33
2018-12-17T10:16:52.492Z,19.73
2018-12-17T10:19:20.135Z,18.20
2018-12-17T10:21:47.576Z,20.17
2018-12-17T10:24:15.170Z,19.20
2018-12-17T10:26:42.703Z,21.60
2018-12-17T10:29:10.214Z,19.80
2018-12-17T10:31:37.792Z,17.20
2018-12-17T10:34:05.368Z,17.10
2018-12-17T10:36:32.842Z,16.27
2018-12-17T10:39:00.345Z,16.83
2018-12-17T10:41:27.796Z,16.43
2018-12-17T10:43:55.394Z,18.63
2018-12-17T10:46:22.863Z,15.53
2018-12-17T10:48:50.346Z,16.90
2018-12-17T10:51:17.896Z,23.60
2018-12-17T10:53:45.453Z,17.43
2018-12-17T10:56:12.920Z,17.33
2018-12-17T10:58:40.494Z,15.37
2018-12-17T11:01:13.750Z,17.00
2018-12-17T11:03:42.314Z,14.90
2018-12-17T11:06:10.348Z,15.30
2018-12-17T11:08:37.930Z,13.90
2018-12-17T11:11:05.449Z,13.57
2018-12-17T11:13:32.938Z,16.10
2018-12-17T11:16:00.420Z,16.70
2018-12-17T11:18:27.902Z,18.13
2018-12-17T11:20:55.444Z,16.80
2018-12-17T11:23:22.950Z,18.40
2018-12-17T11:25:50.433Z,20.20
2018-12-17T11:28:18.791Z,18.90
2018-12-17T11:30:46.713Z,24.73
2018-12-17T11:33:14.454Z,26.67
2018-12-17T11:35:42.141Z,23.03
2018-12-17T11:38:09.908Z,28.83
2018-12-17T11:40:37.423Z,28.43
2018-12-17T11:43:04.896Z,23.77
2018-12-17T11:45:32.599Z,21.93
2018-12-17T11:48:00.072Z,22.50
2018-12-17T11:50:27.529Z,20.93
2018-12-17T11:52:55.059Z,17.83
2018-12-17T11:55:22.570Z,20.60
2018-12-17T11:57:52.830Z,18.37
2018-12-17T12:00:21.100Z,22.63
2018-12-17T12:02:48.577Z,21.73
2018-12-17T12:05:16.104Z,36.93
2018-12-17T12:07:43.585Z,21.80
2018-12-17T12:10:11.149Z,27.77
2018-12-17T12:12:38.642Z,21.23
2018-12-17T12:15:06.285Z,20.17
2018-12-17T12:17:33.742Z,17.83
2018-12-17T12:20:01.239Z,18.10
2018-12-17T12:22:28.718Z,17.03
2018-12-17T12:24:56.211Z,20.00
2018-12-17T12:27:23.995Z,21.03
2018-12-17T12:29:51.767Z,19.57
2018-12-17T12:32:19.359Z,21.40
2018-12-17T12:34:46.844Z,17.20
2018-12-17T12:37:14.332Z,20.50
2018-12-17T12:39:41.831Z,19.10
2018-12-17T12:42:09.299Z,15.97
2018-12-17T12:44:36.804Z,15.63
2018-12-17T12:47:04.440Z,25.73
2018-12-17T12:49:31.985Z,21.83
2018-12-17T12:51:59.448Z,20.70
2018-12-17T12:54:26.987Z,20.23
2018-12-17T12:56:54.452Z,17.50
2018-12-17T12:59:22.108Z,25.30
2018-12-17T13:01:49.576Z,21.10
2018-12-17T13:04:17.150Z,18.43
2018-12-17T13:06:44.639Z,22.57
2018-12-17T13:09:12.138Z,21.10
2018-12-17T13:11:39.600Z,20.70
2018-12-17T13:14:07.081Z,16.37
2018-12-17T13:16:34.541Z,19.10
2018-12-17T13:19:02.151Z,17.07
2018-12-17T13:21:29.625Z,16.93
2018-12-17T13:23:57.138Z,22.00
2018-12-17T13:26:24.698Z,12.13
2018-12-17T13:28:52.225Z,13.90
2018-12-17T13:31:19.708Z,15.70
2018-12-17T13:33:47.201Z,14.83
2018-12-17T13:36:14.763Z,13.93
2018-12-17T13:38:42.473Z,18.03
2018-12-17T13:41:09.996Z,19.70
2018-12-17T13:43:37.524Z,13.57
2018-12-17T13:46:05.034Z,16.50
2018-12-17T13:48:32.506Z,15.80
2018-12-17T13:51:05.787Z,14.80
2018-12-17T13:53:33.289Z,15.03
2018-12-17T13:56:00.780Z,17.17
2018-12-17T13:58:28.279Z,12.20
2018-12-17T14:00:55.756Z,12.50
2018-12-17T14:03:23.221Z,15.27
2018-12-17T14:05:50.706Z,11.70
2018-12-17T14:08:18.309Z,14.17
2018-12-17T14:10:53.405Z,11.17
2018-12-17T14:13:21.430Z,12.10
2018-12-17T14:15:51.167Z,12.97
2018-12-17T14:18:25.676Z,13.23
2018-12-17T14:20:59.236Z,12.27
2018-12-17T14:23:26.711Z,11.73
2018-12-17T14:25:54.288Z,12.50
2018-12-17T14:28:21.780Z,21.13
2018-12-17T14:30:49.343Z,17.60
2018-12-17T14:33:16.905Z,16.67
2018-12-17T14:35:50.089Z,12.53
2018-12-17T14:38:17.552Z,12.43
2018-12-17T14:40:45.047Z,11.07
2018-12-17T14:43:12.554Z,8.73
2018-12-17T14:45:40.052Z,11.67
2018-12-17T14:48:07.509Z,14.60
2018-12-17T14:50:35.105Z,10.00
2018-12-17T14:53:02.605Z,10.37
2018-12-17T14:55:30.115Z,8.87
2018-12-17T14:57:57.643Z,9.57
2018-12-17T15:00:25.199Z,8.63
2018-12-17T15:02:52.694Z,8.20
2018-12-17T15:05:20.226Z,13.07
2018-12-17T15:07:47.696Z,9.30
2018-12-17T15:10:15.235Z,9.97
2018-12-17T15:12:42.740Z,11.30
2018-12-17T15:15:10.602Z,5.50
2018-12-17T15:17:38.117Z,5.97
2018-12-17T15:20:08.614Z,7.10
2018-12-17T15:22:36.175Z,6.37
2018-12-17T15:25:05.905Z,7.57
2018-12-17T15:27:34.354Z,6.60
2018-12-17T15:30:01.806Z,5.93
2018-12-17T15:32:29.271Z,7.57
2018-12-17T15:34:56.760Z,4.43
2018-12-17T15:37:24.277Z,6.77
2018-12-17T15:39:51.840Z,5.10
2018-12-17T15:42:19.379Z,8.20
2018-12-17T15:44:46.895Z,5.77
2018-12-17T15:47:14.430Z,5.23
2018-12-17T15:49:42.417Z,5.17
2018-12-17T15:52:09.916Z,4.00
2018-12-17T15:54:37.526Z,5.90
2018-12-17T16:00:16.571Z,3.13
2018-12-17T16:02:44.263Z,6.17
2018-12-17T16:05:11.838Z,7.40
2018-12-17T16:07:39.333Z,5.17
2018-12-17T16:10:06.979Z,10.20
2018-12-17T16:12:34.567Z,21.73
2018-12-17T16:15:02.086Z,8.30
2018-12-17T16:17:29.579Z,10.50
2018-12-17T16:19:57.038Z,6.73
2018-12-17T16:22:24.503Z,6.87
2018-12-17T16:24:52.023Z,4.00
2018-12-17T16:27:19.675Z,6.57
2018-12-17T16:29:47.307Z,5.10
2018-12-17T16:32:14.747Z,4.13
2018-12-17T16:34:42.258Z,4.57
2018-12-17T16:37:09.721Z,8.33
2018-12-17T16:39:37.174Z,10.60
2018-12-17T16:42:04.643Z,19.03
2018-12-17T16:44:32.086Z,11.87
2018-12-17T16:46:59.589Z,10.63
2018-12-17T16:49:27.092Z,10.27
2018-12-17T16:51:54.559Z,26.20
2018-12-17T16:54:22.004Z,9.87
2018-12-17T16:56:49.466Z,6.27
2018-12-17T16:59:16.941Z,16.33
2018-12-17T17:01:44.395Z,9.20
2018-12-17T17:04:11.833Z,11.43
2018-12-17T17:06:39.286Z,8.27
2018-12-17T17:09:06.794Z,6.40
2018-12-17T17:11:34.277Z,5.53
2018-12-17T17:14:01.725Z,4.10
2018-12-17T17:16:29.186Z,4.27
2018-12-17T17:18:56.620Z,7.17
2018-12-17T17:21:24.067Z,6.73
2018-12-17T17:23:51.528Z,5.70
2018-12-17T17:26:19.005Z,5.23
2018-12-17T17:28:46.448Z,4.63
2018-12-17T17:31:13.891Z,5.03
2018-12-17T17:33:41.338Z,4.70
2018-12-17T17:36:08.809Z,5.90
2018-12-17T17:38:36.270Z,5.87
2018-12-17T17:41:03.707Z,7.50
2018-12-17T17:43:31.157Z,10.80
2018-12-17T17:45:58.607Z,8.90
2018-12-17T17:48:26.097Z,7.10
2018-12-17T17:50:53.595Z,5.50
2018-12-17T17:53:21.036Z,5.30
2018-12-17T17:55:48.518Z,6.03
2018-12-17T17:58:15.976Z,5.87
2018-12-17T18:00:43.416Z,8.23
2018-12-17T18:03:10.848Z,5.63
2018-12-17T18:05:38.333Z,5.10
2018-12-17T18:08:05.781Z,7.63
2018-12-17T18:10:33.247Z,6.50
2018-12-17T18:13:01.612Z,11.00
2018-12-17T18:15:29.074Z,8.87
2018-12-17T18:17:56.527Z,7.07
2018-12-17T18:20:23.988Z,6.97
2018-12-17T18:22:51.423Z,8.77
2018-12-17T18:25:18.884Z,8.20
2018-12-17T18:27:46.373Z,7.13
2018-12-17T18:30:13.807Z,7.53
2018-12-17T18:32:41.262Z,10.20
2018-12-17T18:35:08.705Z,7.43
2018-12-17T18:37:36.298Z,7.13
2018-12-17T18:40:04.543Z,6.87
2018-12-17T18:42:32.017Z,7.07
2018-12-17T18:44:59.491Z,9.90
2018-12-17T18:47:26.951Z,7.03
2018-12-17T18:49:54.396Z,7.90
2018-12-17T18:52:21.862Z,5.97
2018-12-17T18:54:51.332Z,5.50
2018-12-17T18:57:18.811Z,6.27
2018-12-17T18:59:46.253Z,6.63
2018-12-17T19:02:13.717Z,8.87
2018-12-17T19:04:41.639Z,5.77
2018-12-17T19:07:09.076Z,5.43
2018-12-17T19:09:36.504Z,5.80
2018-12-17T19:12:04.014Z,8.23
2018-12-17T19:14:31.475Z,5.93
2018-12-17T19:16:58.932Z,7.03
2018-12-17T19:19:26.390Z,9.80
2018-12-17T19:21:53.861Z,9.67
2018-12-17T19:24:21.360Z,11.37
2018-12-17T19:26:48.830Z,8.60
2018-12-17T19:29:16.303Z,9.37
2018-12-17T19:31:43.755Z,7.27
2018-12-17T19:34:11.184Z,8.07
2018-12-17T19:36:38.689Z,7.60
2018-12-17T19:39:06.384Z,12.53
2018-12-17T19:41:33.861Z,10.23
2018-12-17T19:44:01.306Z,12.10
2018-12-17T19:46:28.760Z,7.73
2018-12-17T19:48:56.210Z,7.17
2018-12-17T19:51:23.656Z,6.90
2018-12-17T19:53:51.104Z,9.77
2018-12-17T19:56:18.556Z,10.63
2018-12-17T19:58:46.010Z,9.70
2018-12-17T20:01:13.456Z,10.03
2018-12-17T20:03:40.962Z,11.23
2018-12-17T20:06:08.402Z,13.43
2018-12-17T20:08:35.847Z,10.83
2018-12-17T20:11:03.307Z,11.00
2018-12-17T20:13:30.755Z,13.40
2018-12-17T20:15:58.222Z,12.13
2018-12-17T20:18:25.664Z,10.10
2018-12-17T20:20:53.143Z,8.20
2018-12-17T20:23:20.582Z,9.90
2018-12-17T20:25:48.029Z,9.03
2018-12-17T20:28:15.497Z,8.40
2018-12-17T20:30:42.939Z,9.60
2018-12-17T20:33:10.412Z,8.30
2018-12-17T20:35:37.862Z,9.97
2018-12-17T20:38:05.330Z,7.33
2018-12-17T20:40:32.771Z,9.80
2018-12-17T20:43:00.227Z,10.20
2018-12-17T20:45:28.656Z,6.60
2018-12-17T20:47:56.099Z,8.37
2018-12-17T20:50:23.546Z,8.23
2018-12-17T20:52:51.034Z,8.20
2018-12-17T20:55:18.463Z,7.93
2018-12-17T20:57:45.948Z,10.70
2018-12-17T21:00:13.462Z,9.77
2018-12-17T21:02:40.922Z,7.50
2018-12-17T21:05:08.382Z,14.07
2018-12-17T21:07:35.851Z,9.70
2018-12-17T21:10:04.088Z,8.80
2018-12-17T21:12:31.537Z,13.27
2018-12-17T21:14:59.027Z,11.80
2018-12-17T21:17:27.334Z,14.03
2018-12-17T21:19:54.763Z,11.00
2018-12-17T21:22:22.219Z,10.70
2018-12-17T21:24:49.693Z,10.87
2018-12-17T21:27:17.146Z,9.53
2018-12-17T21:29:44.598Z,9.67
2018-12-17T21:32:12.125Z,14.03
2018-12-17T21:34:39.585Z,11.37
2018-12-17T21:37:07.069Z,11.97
2018-12-17T21:39:34.504Z,16.03
2018-12-17T21:42:01.999Z,12.40
2018-12-17T21:44:29.432Z,19.97
2018-12-17T21:46:56.892Z,15.17
2018-12-17T21:49:24.366Z,20.17
2018-12-17T21:51:51.841Z,15.67
2018-12-17T21:54:19.277Z,12.77
2018-12-17T21:56:46.739Z,38.17
2018-12-17T21:59:14.189Z,32.63
2018-12-17T22:01:41.652Z,36.83
2018-12-17T22:04:09.094Z,24.17
2018-12-17T22:06:36.558Z,23.40
2018-12-17T22:09:05.620Z,11.47
2018-12-17T22:11:33.074Z,10.83
2018-12-17T22:14:00.516Z,13.23
2018-12-17T22:16:27.969Z,11.67
2018-12-17T22:18:55.404Z,10.93
2018-12-17T22:21:22.855Z,7.13
2018-12-17T22:23:50.299Z,10.27
2018-12-17T22:26:17.748Z,8.30
2018-12-17T22:28:45.193Z,9.03
2018-12-17T22:31:12.628Z,9.80
2018-12-17T22:33:40.092Z,8.60
2018-12-17T22:36:07.541Z,10.40
2018-12-17T22:38:34.993Z,7.40
2018-12-17T22:41:02.447Z,8.70
2018-12-17T22:43:29.890Z,9.13
2018-12-17T22:45:57.334Z,8.60
2018-12-17T22:48:24.772Z,9.00
2018-12-17T22:50:52.210Z,7.97
2018-12-17T22:53:19.665Z,9.27
2018-12-17T22:55:47.111Z,8.97
2018-12-17T22:58:14.562Z,13.17
2018-12-17T23:00:43.309Z,11.03
2018-12-17T23:03:10.763Z,8.97
2018-12-17T23:05:38.204Z,8.67
2018-12-17T23:08:05.670Z,9.53
2018-12-17T23:10:45.056Z,12.93
2018-12-17T23:13:24.487Z,10.23
2018-12-17T23:16:03.854Z,14.90
2018-12-17T23:18:30.892Z,17.37
2018-12-17T23:20:58.332Z,14.43
2018-12-17T23:23:25.792Z,16.97
2018-12-17T23:25:53.298Z,13.30
2018-12-17T23:28:20.863Z,14.33
2018-12-17T23:30:48.319Z,11.47
2018-12-17T23:33:15.839Z,10.20
2018-12-17T23:35:43.272Z,24.47
2018-12-17T23:38:10.720Z,9.93
2018-12-17T23:40:38.180Z,10.30
2018-12-17T23:43:05.624Z,10.07
2018-12-17T23:45:33.078Z,12.70
2018-12-17T23:48:00.544Z,14.60
2018-12-17T23:50:28.004Z,13.63
2018-12-17T23:52:55.552Z,18.93
2018-12-17T23:55:23.196Z,13.13
2018-12-17T23:57:50.688Z,14.60
